Terminal Aerodrome Forecast
Issued by NWS

Home | Current Version | Previous Version | Text Only | Print | Product List | Glossary On
Versions: 1 2 3 4 5 6 7 8 9 10 11 12 13 14 15
000
FTPA31 PHFO 262338
TAFHTO
TAF
PHTO 262338Z 2700/2724 10010KT P6SM SCT025 BKN050
     FM270600 25005KT P6SM VCSH SCT025 BKN050
     FM272000 12011KT P6SM VCSH SCT025 BKN050=

USA.gov is the U.S. government's official web portal to all federal, state and local government web resources and services.